Time;durP1;ratioP1;P1;durP2;ratioP2;P2;SDS_P1;SDS_P2;PMS_P1;PMS_P2;Temp;Humidity;BMP_temperature;BMP_pressure;BME280_temperature;BME280_humidity;BME280_pressure;Samples;Min_cycle;Max_cycle;Signal;HPM_P1;HPM_P2
2021/08/07 00:00:12;;;;;;;4.32;1.60;;;;;;;;;;5054359;28;20029;-52
2021/08/07 00:02:38;;;;;;;4.97;1.88;;;;;;;;;;5053695;28;20079;-51
2021/08/07 00:05:05;;;;;;;3.25;1.58;;;;;;;;;;5053798;28;20031;-52
2021/08/07 00:07:33;;;;;;;2.45;1.40;;;;;;;;;;5054038;28;20358;-52
2021/08/07 00:09:59;;;;;;;7.82;1.73;;;;;;;;;;5053416;28;20065;-51
2021/08/07 00:12:25;;;;;;;8.35;1.63;;;;;;;;;;5053155;28;20055;-52
2021/08/07 00:14:51;;;;;;;5.32;1.60;;;;;;;;;;5053924;28;20025;-51
2021/08/07 00:17:17;;;;;;;9.35;2.22;;;;;;;;;;5054042;28;20407;-52
2021/08/07 00:19:43;;;;;;;3.30;1.48;;;;;;;;;;5053491;28;20025;-52
2021/08/07 00:22:09;;;;;;;3.63;1.35;;;;;;;;;;5052651;28;20068;-51
2021/08/07 00:24:35;;;;;;;4.07;1.42;;;;;;;;;;5053181;28;20441;-52
2021/08/07 00:27:01;;;;;;;4.32;1.67;;;;;;;;;;5053771;28;20025;-52
2021/08/07 00:29:27;;;;;;;8.88;1.80;;;;;;;;;;5053504;28;20066;-52
2021/08/07 00:31:53;;;;;;;6.00;1.55;;;;;;;;;;5052715;28;20017;-51
2021/08/07 00:34:19;;;;;;;3.80;1.70;;;;;;;;;;5053171;28;20029;-52
2021/08/07 00:36:45;;;;;;;6.32;1.70;;;;;;;;;;5053314;28;20017;-52
2021/08/07 00:39:11;;;;;;;3.58;2.15;;;;;;;;;;5052767;28;20162;-51
2021/08/07 00:41:37;;;;;;;4.93;2.38;;;;;;;;;;5052616;28;20044;-51
2021/08/07 00:44:03;;;;;;;4.40;1.83;;;;;;;;;;5053002;28;20033;-51
2021/08/07 00:46:29;;;;;;;5.97;2.08;;;;;;;;;;5053656;28;20604;-52
2021/08/07 00:48:55;;;;;;;2.83;1.80;;;;;;;;;;5053406;28;20025;-51
2021/08/07 00:51:21;;;;;;;9.52;1.80;;;;;;;;;;5052480;28;20347;-52
2021/08/07 00:53:47;;;;;;;3.78;1.42;;;;;;;;;;5052398;28;20124;-52
2021/08/07 00:56:13;;;;;;;7.45;2.20;;;;;;;;;;5053036;28;20009;-51
2021/08/07 00:58:39;;;;;;;7.25;2.53;;;;;;;;;;5052859;28;20028;-51
2021/08/07 01:01:07;;;;;;;4.28;2.13;;;;;;;;;;5052456;28;20116;-52
2021/08/07 01:03:39;;;;;;;3.78;1.77;;;;;;;;;;5053016;28;20120;-52
2021/08/07 01:06:16;;;;;;;4.78;2.20;;;;;;;;;;5052903;28;20358;-51
2021/08/07 01:08:44;;;;;;;7.03;2.20;;;;;;;;;;5052826;28;20373;-51
2021/08/07 01:11:23;;;;;;;4.55;1.88;;;;;;;;;;5052205;28;20025;-52
2021/08/07 01:13:50;;;;;;;4.40;1.92;;;;;;;;;;5053326;28;20242;-51
2021/08/07 01:16:25;;;;;;;1.73;1.27;;;;;;;;;;5053206;28;20021;-51
2021/08/07 01:18:51;;;;;;;5.00;1.80;;;;;;;;;;5052810;28;20112;-51
2021/08/07 01:21:19;;;;;;;2.72;1.38;;;;;;;;;;5051908;28;20029;-52
2021/08/07 01:23:50;;;;;;;1.92;1.15;;;;;;;;;;5052594;28;20025;-52
2021/08/07 01:26:23;;;;;;;6.75;1.42;;;;;;;;;;5052724;28;20031;-51
2021/08/07 01:28:50;;;;;;;6.88;2.03;;;;;;;;;;5052441;28;20032;-51
2021/08/07 01:31:18;;;;;;;3.90;1.65;;;;;;;;;;5051509;28;20067;-51
2021/08/07 01:33:46;;;;;;;5.50;1.75;;;;;;;;;;5052935;28;20021;-51
2021/08/07 01:36:13;;;;;;;7.43;1.50;;;;;;;;;;5052778;28;20031;-51
2021/08/07 01:38:42;;;;;;;8.52;1.35;;;;;;;;;;5052436;28;20021;-52
2021/08/07 01:41:18;;;;;;;7.05;1.63;;;;;;;;;;5051544;28;20685;-52
2021/08/07 01:43:44;;;;;;;2.90;1.58;;;;;;;;;;5052192;28;20150;-52
2021/08/07 01:46:11;;;;;;;4.43;1.67;;;;;;;;;;5052600;28;20017;-52
2021/08/07 01:48:43;;;;;;;4.40;1.38;;;;;;;;;;5052568;28;20025;-52
2021/08/07 01:51:14;;;;;;;2.50;1.38;;;;;;;;;;5051419;28;20358;-52
2021/08/07 01:53:40;;;;;;;2.67;1.20;;;;;;;;;;5052258;28;20447;-52
2021/08/07 01:56:12;;;;;;;3.00;1.48;;;;;;;;;;5051936;28;20033;-52
2021/08/07 01:58:49;;;;;;;3.65;1.67;;;;;;;;;;5052204;28;20037;-52
2021/08/07 02:01:16;;;;;;;1.67;1.05;;;;;;;;;;5051807;28;20037;-51
2021/08/07 02:03:43;;;;;;;1.48;0.90;;;;;;;;;;5052225;28;20064;-51
2021/08/07 02:06:09;;;;;;;2.17;1.50;;;;;;;;;;5052127;28;20481;-51
2021/08/07 02:08:36;;;;;;;1.85;1.10;;;;;;;;;;5052018;28;20339;-51
2021/08/07 02:11:03;;;;;;;1.20;1.00;;;;;;;;;;5053328;28;20350;-51
2021/08/07 02:13:29;;;;;;;1.60;1.15;;;;;;;;;;5056372;28;20017;-51
2021/08/07 02:15:56;;;;;;;2.17;1.20;;;;;;;;;;5056029;28;20021;-51
2021/08/07 02:18:23;;;;;;;1.58;1.00;;;;;;;;;;5056418;28;20064;-51
2021/08/07 02:20:49;;;;;;;3.10;1.10;;;;;;;;;;5054029;28;20025;-52
2021/08/07 02:23:16;;;;;;;3.85;1.13;;;;;;;;;;5055515;28;20033;-51
2021/08/07 02:25:42;;;;;;;1.98;1.20;;;;;;;;;;5055644;28;20522;-51
2021/08/07 02:28:09;;;;;;;2.92;1.27;;;;;;;;;;5055784;28;20021;-51
2021/08/07 02:30:35;;;;;;;3.17;1.58;;;;;;;;;;5054867;28;20025;-51
2021/08/07 02:33:02;;;;;;;3.03;1.25;;;;;;;;;;5055558;28;20025;-51
2021/08/07 02:35:28;;;;;;;1.30;1.00;;;;;;;;;;5055983;28;20021;-51
2021/08/07 02:37:54;;;;;;;5.80;1.38;;;;;;;;;;5055974;28;20063;-51
2021/08/07 02:40:21;;;;;;;2.03;1.23;;;;;;;;;;5055497;28;20032;-52
2021/08/07 02:42:47;;;;;;;6.22;1.48;;;;;;;;;;5054926;28;20112;-51
2021/08/07 02:45:15;;;;;;;2.03;1.27;;;;;;;;;;5054838;28;20048;-51
2021/08/07 02:47:41;;;;;;;4.82;1.23;;;;;;;;;;5055461;28;20451;-51
2021/08/07 02:50:08;;;;;;;3.42;1.17;;;;;;;;;;5055394;28;20032;-51
2021/08/07 02:52:34;;;;;;;3.75;1.13;;;;;;;;;;5054798;28;20057;-51
2021/08/07 02:55:03;;;;;;;6.38;1.17;;;;;;;;;;5055045;28;20227;-51
2021/08/07 02:57:29;;;;;;;1.70;1.27;;;;;;;;;;5052840;28;20029;-51
2021/08/07 02:59:55;;;;;;;3.30;1.50;;;;;;;;;;5075454;28;20063;-51
2021/08/07 03:02:21;;;;;;;3.25;1.17;;;;;;;;;;5073967;28;20128;-52
2021/08/07 03:04:47;;;;;;;1.63;1.20;;;;;;;;;;5075312;28;20584;-51
2021/08/07 03:07:13;;;;;;;4.13;1.50;;;;;;;;;;5075475;28;20016;-51
2021/08/07 03:09:39;;;;;;;2.13;1.50;;;;;;;;;;5074592;28;20021;-51
2021/08/07 03:12:05;;;;;;;3.83;1.48;;;;;;;;;;5074105;28;20021;-51
2021/08/07 03:14:31;;;;;;;4.95;1.50;;;;;;;;;;5074879;28;20070;-51
2021/08/07 03:16:57;;;;;;;2.92;1.25;;;;;;;;;;5074532;28;20032;-51
2021/08/07 03:19:24;;;;;;;1.92;1.70;;;;;;;;;;5075055;28;20032;-51
2021/08/07 03:21:50;;;;;;;1.77;1.20;;;;;;;;;;5073414;28;20453;-51
2021/08/07 03:24:16;;;;;;;4.15;1.20;;;;;;;;;;5074263;28;20043;-51
2021/08/07 03:26:42;;;;;;;3.13;1.00;;;;;;;;;;5074674;28;20350;-51
2021/08/07 03:29:08;;;;;;;2.10;1.23;;;;;;;;;;5074943;28;20551;-51
2021/08/07 03:31:34;;;;;;;2.67;1.50;;;;;;;;;;5074190;28;20013;-51
2021/08/07 03:34:00;;;;;;;2.03;1.35;;;;;;;;;;5074396;28;20048;-51
2021/08/07 03:36:26;;;;;;;2.63;1.20;;;;;;;;;;5056249;28;20021;-51
2021/08/07 03:38:52;;;;;;;3.78;1.10;;;;;;;;;;5054590;28;20029;-51
2021/08/07 03:41:18;;;;;;;2.53;1.40;;;;;;;;;;5053515;28;20031;-51
2021/08/07 03:43:44;;;;;;;2.28;1.30;;;;;;;;;;5054514;28;20090;-51
2021/08/07 03:46:10;;;;;;;2.55;1.55;;;;;;;;;;5054651;28;20056;-51
2021/08/07 03:48:36;;;;;;;1.65;1.33;;;;;;;;;;5054164;28;20021;-51
2021/08/07 03:51:02;;;;;;;2.78;1.02;;;;;;;;;;5053671;28;20314;-51
2021/08/07 03:53:28;;;;;;;1.48;0.90;;;;;;;;;;5054020;28;20029;-51
2021/08/07 03:55:54;;;;;;;1.58;1.40;;;;;;;;;;5054158;28;20512;-51
2021/08/07 03:58:20;;;;;;;3.15;1.48;;;;;;;;;;5054279;28;20046;-51
2021/08/07 04:00:46;;;;;;;2.90;1.20;;;;;;;;;;5053521;28;20029;-51
2021/08/07 04:03:12;;;;;;;6.78;1.42;;;;;;;;;;5053684;28;20382;-51
2021/08/07 04:05:38;;;;;;;1.73;1.27;;;;;;;;;;5054006;28;20025;-51
2021/08/07 04:08:05;;;;;;;2.65;1.33;;;;;;;;;;5052624;28;20024;-51
2021/08/07 04:10:32;;;;;;;1.92;1.20;;;;;;;;;;5053572;28;20144;-51
2021/08/07 04:12:58;;;;;;;1.75;1.23;;;;;;;;;;5053502;28;20039;-51
2021/08/07 04:15:24;;;;;;;3.63;1.40;;;;;;;;;;5053914;28;20451;-51
2021/08/07 04:17:50;;;;;;;3.78;1.60;;;;;;;;;;5053886;28;20386;-51
2021/08/07 04:20:16;;;;;;;1.90;1.40;;;;;;;;;;5053908;28;20402;-51
2021/08/07 04:22:43;;;;;;;12.38;1.42;;;;;;;;;;5052738;28;20037;-51
2021/08/07 04:25:09;;;;;;;3.30;2.13;;;;;;;;;;5053277;28;20396;-51
2021/08/07 04:27:35;;;;;;;4.50;1.45;;;;;;;;;;5053388;28;20029;-51
2021/08/07 04:30:02;;;;;;;4.72;1.35;;;;;;;;;;5053746;28;20108;-51
2021/08/07 04:32:28;;;;;;;2.83;1.40;;;;;;;;;;5052380;28;20060;-51
2021/08/07 04:34:54;;;;;;;2.53;1.20;;;;;;;;;;5052598;28;20056;-51
2021/08/07 04:37:20;;;;;;;3.22;1.15;;;;;;;;;;5053301;28;20441;-51
2021/08/07 04:39:46;;;;;;;2.45;1.38;;;;;;;;;;5053336;28;20021;-51
2021/08/07 04:42:12;;;;;;;1.50;1.13;;;;;;;;;;5052598;28;20036;-51
2021/08/07 04:44:38;;;;;;;2.47;1.48;;;;;;;;;;5053177;28;20037;-51
2021/08/07 04:47:04;;;;;;;2.63;1.52;;;;;;;;;;5052991;28;20033;-51
2021/08/07 04:49:31;;;;;;;10.52;1.80;;;;;;;;;;5052949;28;20020;-51
2021/08/07 04:51:57;;;;;;;3.90;1.35;;;;;;;;;;5052206;28;20468;-51
2021/08/07 04:54:23;;;;;;;5.88;2.38;;;;;;;;;;5053433;28;20035;-51
2021/08/07 04:56:49;;;;;;;2.50;1.48;;;;;;;;;;5053366;28;20095;-51
2021/08/07 04:59:15;;;;;;;2.15;1.38;;;;;;;;;;5052808;28;20339;-52
2021/08/07 05:01:42;;;;;;;3.42;1.80;;;;;;;;;;5052068;28;20017;-51
2021/08/07 05:04:08;;;;;;;2.45;1.33;;;;;;;;;;5052880;28;20047;-51
2021/08/07 05:06:34;;;;;;;2.92;1.55;;;;;;;;;;5052941;28;20055;-52
2021/08/07 05:09:00;;;;;;;3.30;1.52;;;;;;;;;;5052571;28;20032;-51
2021/08/07 05:11:26;;;;;;;8.00;2.17;;;;;;;;;;5052005;28;20112;-51
2021/08/07 05:13:52;;;;;;;3.88;1.35;;;;;;;;;;5052725;28;20121;-51
2021/08/07 05:16:18;;;;;;;3.00;1.80;;;;;;;;;;5052559;28;20401;-51
2021/08/07 05:18:44;;;;;;;7.93;1.73;;;;;;;;;;5052774;28;20025;-51
2021/08/07 05:21:10;;;;;;;4.03;1.70;;;;;;;;;;5051906;28;20593;-53
2021/08/07 05:23:36;;;;;;;5.15;1.52;;;;;;;;;;5054170;28;20029;-51
2021/08/07 05:26:02;;;;;;;6.18;2.45;;;;;;;;;;5063124;28;20020;-51
2021/08/07 05:28:28;;;;;;;4.32;2.10;;;;;;;;;;5061567;28;20021;-51
2021/08/07 05:30:54;;;;;;;7.70;2.10;;;;;;;;;;5068884;28;20028;-52
2021/08/07 05:33:20;;;;;;;3.97;1.80;;;;;;;;;;5072729;28;20104;-51
2021/08/07 05:35:46;;;;;;;3.10;1.58;;;;;;;;;;5072327;28;20055;-51
2021/08/07 05:38:12;;;;;;;8.50;1.80;;;;;;;;;;5072921;28;20024;-51
2021/08/07 05:40:38;;;;;;;5.35;1.80;;;;;;;;;;5065096;28;20501;-51
2021/08/07 05:43:04;;;;;;;1.30;1.20;;;;;;;;;;5071833;28;20043;-51
2021/08/07 05:45:30;;;;;;;2.30;1.48;;;;;;;;;;5074344;28;20028;-51
2021/08/07 05:47:56;;;;;;;1.40;1.30;;;;;;;;;;5074944;28;20028;-52
2021/08/07 05:50:22;;;;;;;1.65;1.45;;;;;;;;;;5066332;28;20402;-51
2021/08/07 05:52:48;;;;;;;7.82;1.50;;;;;;;;;;5074961;28;20107;-51
2021/08/07 05:55:14;;;;;;;5.00;1.30;;;;;;;;;;5075893;28;20031;-51
2021/08/07 05:57:40;;;;;;;2.17;1.63;;;;;;;;;;5076250;28;20012;-51
2021/08/07 06:00:06;;;;;;;5.38;1.92;;;;;;;;;;5076105;28;20028;-52
2021/08/07 06:02:34;;;;;;;3.88;1.88;;;;;;;;;;5074460;28;20412;-51
2021/08/07 06:05:00;;;;;;;3.50;1.67;;;;;;;;;;5074515;28;20124;-51
2021/08/07 06:07:26;;;;;;;6.70;1.50;;;;;;;;;;5074630;28;20016;-51
2021/08/07 06:09:51;;;;;;;3.88;1.70;;;;;;;;;;5076023;28;20207;-52
2021/08/07 06:12:18;;;;;;;5.03;1.60;;;;;;;;;;5069594;28;20029;-52
2021/08/07 06:14:44;;;;;;;9.00;1.70;;;;;;;;;;5069449;28;20032;-51
2021/08/07 06:17:10;;;;;;;4.70;1.45;;;;;;;;;;5075084;28;20557;-51
2021/08/07 06:19:36;;;;;;;8.60;1.70;;;;;;;;;;5075479;28;20009;-51
2021/08/07 06:22:03;;;;;;;4.90;2.00;;;;;;;;;;5073277;28;20542;-51
2021/08/07 06:24:29;;;;;;;2.95;1.48;;;;;;;;;;5075560;28;20037;-52
2021/08/07 06:26:55;;;;;;;5.80;1.92;;;;;;;;;;5075693;28;20047;-51
2021/08/07 06:29:21;;;;;;;2.30;1.35;;;;;;;;;;5075733;28;20442;-51
2021/08/07 06:31:47;;;;;;;2.63;1.52;;;;;;;;;;5074796;28;20028;-52
2021/08/07 06:34:13;;;;;;;2.90;1.95;;;;;;;;;;5075908;28;20027;-52
2021/08/07 06:36:40;;;;;;;2.95;1.63;;;;;;;;;;5055585;28;20450;-51
2021/08/07 06:39:06;;;;;;;6.20;1.77;;;;;;;;;;5055822;28;20036;-51
2021/08/07 06:41:32;;;;;;;2.75;1.50;;;;;;;;;;5054822;28;20083;-51
2021/08/07 06:43:58;;;;;;;3.30;1.70;;;;;;;;;;5055209;28;20316;-52
2021/08/07 06:46:24;;;;;;;3.75;1.75;;;;;;;;;;5055128;28;20017;-51
2021/08/07 06:48:50;;;;;;;4.80;1.67;;;;;;;;;;5055449;28;20465;-52
2021/08/07 06:51:16;;;;;;;1.90;1.52;;;;;;;;;;5054759;28;20025;-51
2021/08/07 06:53:42;;;;;;;5.18;2.53;;;;;;;;;;5055261;28;20332;-52
2021/08/07 06:56:08;;;;;;;4.10;2.10;;;;;;;;;;5054712;28;20033;-51
2021/08/07 06:58:34;;;;;;;5.68;2.38;;;;;;;;;;5055383;28;20025;-51
2021/08/07 07:01:00;;;;;;;4.45;1.85;;;;;;;;;;5054416;28;20362;-51
2021/08/07 07:03:26;;;;;;;9.80;1.83;;;;;;;;;;5055217;28;20032;-52
2021/08/07 07:05:52;;;;;;;7.10;2.20;;;;;;;;;;5055047;28;20025;-51
2021/08/07 07:08:20;;;;;;;4.40;2.45;;;;;;;;;;5055162;28;20126;-51
2021/08/07 07:10:47;;;;;;;4.45;2.35;;;;;;;;;;5054019;28;20036;-51
2021/08/07 07:13:13;;;;;;;14.60;2.28;;;;;;;;;;5055280;28;20067;-51
2021/08/07 07:15:39;;;;;;;4.50;2.25;;;;;;;;;;5054806;28;20052;-51
2021/08/07 07:18:06;;;;;;;5.40;2.67;;;;;;;;;;5055160;28;20021;-51
2021/08/07 07:20:32;;;;;;;4.25;1.98;;;;;;;;;;5054819;28;20025;-51
2021/08/07 07:22:58;;;;;;;2.97;1.80;;;;;;;;;;5054222;28;20532;-51
2021/08/07 07:25:24;;;;;;;2.90;2.03;;;;;;;;;;5054871;28;20078;-52
2021/08/07 07:27:50;;;;;;;1.92;1.40;;;;;;;;;;5054775;28;20029;-52
2021/08/07 07:30:16;;;;;;;4.38;2.42;;;;;;;;;;5054636;28;20417;-51
2021/08/07 07:32:43;;;;;;;7.72;2.38;;;;;;;;;;5053919;28;20029;-51
2021/08/07 07:35:09;;;;;;;4.45;2.58;;;;;;;;;;5054635;28;20013;-51
2021/08/07 07:37:35;;;;;;;5.80;2.20;;;;;;;;;;5054340;28;20063;-51
2021/08/07 07:40:02;;;;;;;3.20;2.05;;;;;;;;;;5054935;28;20025;-52
2021/08/07 07:42:28;;;;;;;6.22;2.17;;;;;;;;;;5053460;28;20024;-52
2021/08/07 07:44:54;;;;;;;3.15;2.15;;;;;;;;;;5054188;28;20041;-52
2021/08/07 07:47:20;;;;;;;3.28;2.10;;;;;;;;;;5054192;28;20025;-51
2021/08/07 07:49:46;;;;;;;3.85;2.40;;;;;;;;;;5054738;28;20032;-51
2021/08/07 07:52:12;;;;;;;5.53;2.38;;;;;;;;;;5053433;28;20393;-51
2021/08/07 07:54:38;;;;;;;5.05;2.58;;;;;;;;;;5054695;28;20124;-51
2021/08/07 07:57:04;;;;;;;2.55;2.00;;;;;;;;;;5053473;28;20025;-51
2021/08/07 07:59:30;;;;;;;4.43;2.67;;;;;;;;;;5054526;28;20155;-51
2021/08/07 08:02:01;;;;;;;5.25;2.50;;;;;;;;;;5053342;28;20032;-51
2021/08/07 08:04:29;;;;;;;5.75;1.90;;;;;;;;;;5054214;28;20037;-51
2021/08/07 08:06:55;;;;;;;4.57;2.08;;;;;;;;;;5054158;28;20028;-51
2021/08/07 08:09:21;;;;;;;4.00;2.22;;;;;;;;;;5053862;28;20021;-51
2021/08/07 08:11:47;;;;;;;7.97;2.35;;;;;;;;;;5052748;28;20111;-52
2021/08/07 08:14:13;;;;;;;3.85;2.25;;;;;;;;;;5053835;28;20104;-52
2021/08/07 08:16:39;;;;;;;5.10;2.38;;;;;;;;;;5053932;28;20021;-52
2021/08/07 08:19:05;;;;;;;11.73;1.92;;;;;;;;;;5053532;28;20044;-52
2021/08/07 08:21:31;;;;;;;4.22;2.17;;;;;;;;;;5051454;28;20025;-52
2021/08/07 08:23:58;;;;;;;3.65;2.00;;;;;;;;;;5053789;28;20037;-52
2021/08/07 08:26:24;;;;;;;2.42;1.70;;;;;;;;;;5053636;28;20025;-51
2021/08/07 08:28:50;;;;;;;8.40;2.40;;;;;;;;;;5053673;28;20112;-51
2021/08/07 08:31:16;;;;;;;3.13;1.90;;;;;;;;;;5052852;28;20117;-51
2021/08/07 08:33:42;;;;;;;4.15;2.58;;;;;;;;;;5053228;28;20497;-51
2021/08/07 08:36:08;;;;;;;3.30;2.13;;;;;;;;;;5053094;28;20518;-51
2021/08/07 08:38:34;;;;;;;4.55;2.22;;;;;;;;;;5056045;28;20120;-51
2021/08/07 08:41:00;;;;;;;3.85;2.00;;;;;;;;;;5052886;28;20025;-51
2021/08/07 08:43:26;;;;;;;14.20;2.67;;;;;;;;;;5054664;28;20053;-51
2021/08/07 08:45:53;;;;;;;7.93;2.40;;;;;;;;;;5073174;28;20509;-51
2021/08/07 08:48:19;;;;;;;4.03;1.80;;;;;;;;;;5073190;28;20051;-51
2021/08/07 08:50:45;;;;;;;5.80;2.25;;;;;;;;;;5061388;28;20427;-51
2021/08/07 08:53:12;;;;;;;7.13;2.22;;;;;;;;;;5072640;28;20024;-51
2021/08/07 08:55:39;;;;;;;4.60;2.45;;;;;;;;;;5072918;28;20032;-51
2021/08/07 08:58:05;;;;;;;5.68;2.92;;;;;;;;;;5072368;28;20086;-51
2021/08/07 09:00:31;;;;;;;3.80;2.22;;;;;;;;;;5072846;28;20024;-51
2021/08/07 09:02:57;;;;;;;3.67;2.67;;;;;;;;;;5072050;28;20039;-51
2021/08/07 09:05:23;;;;;;;5.47;2.05;;;;;;;;;;5068665;28;20134;-51
2021/08/07 09:07:49;;;;;;;4.13;2.42;;;;;;;;;;5058602;28;20013;-51
2021/08/07 09:10:15;;;;;;;3.97;2.15;;;;;;;;;;5070276;28;20029;-51
2021/08/07 09:12:41;;;;;;;3.88;1.63;;;;;;;;;;5071892;28;20430;-51
2021/08/07 09:15:24;;;;;;;2.88;1.55;;;;;;;;;;5072689;28;20025;-51
2021/08/07 09:17:50;;;;;;;3.92;1.85;;;;;;;;;;5072146;28;20035;-51
2021/08/07 09:20:27;;;;;;;5.22;2.75;;;;;;;;;;5072415;28;20437;-52
2021/08/07 09:22:54;;;;;;;3.53;2.33;;;;;;;;;;5071741;28;20040;-52
2021/08/07 09:25:26;;;;;;;4.13;2.20;;;;;;;;;;5072222;28;20340;-51
2021/08/07 09:27:52;;;;;;;8.95;2.30;;;;;;;;;;5064610;28;20499;-51
2021/08/07 09:30:18;;;;;;;3.22;2.25;;;;;;;;;;5069747;28;20123;-51
2021/08/07 09:32:49;;;;;;;5.80;2.22;;;;;;;;;;5069196;28;20095;-51
2021/08/07 09:35:17;;;;;;;5.20;2.30;;;;;;;;;;5062848;28;20018;-51
2021/08/07 09:37:43;;;;;;;9.38;2.50;;;;;;;;;;5050817;28;20028;-51
2021/08/07 09:40:13;;;;;;;3.97;2.03;;;;;;;;;;5056024;28;20055;-51
2021/08/07 09:42:52;;;;;;;8.35;2.25;;;;;;;;;;5070111;28;20517;-52
2021/08/07 09:45:22;;;;;;;3.50;2.40;;;;;;;;;;5072050;28;20090;-51
2021/08/07 09:47:59;;;;;;;3.33;1.75;;;;;;;;;;5072453;28;20025;-51
2021/08/07 09:50:26;;;;;;;5.07;2.05;;;;;;;;;;5071730;28;20432;-51
2021/08/07 09:52:52;;;;;;;3.65;2.03;;;;;;;;;;5069729;28;20025;-51
2021/08/07 09:55:18;;;;;;;2.85;2.00;;;;;;;;;;5071998;28;20404;-51
2021/08/07 09:57:44;;;;;;;3.55;2.00;;;;;;;;;;5072557;28;20044;-51
2021/08/07 10:00:11;;;;;;;7.30;2.05;;;;;;;;;;5078329;28;20013;-51
2021/08/07 10:02:37;;;;;;;3.45;1.75;;;;;;;;;;5071632;28;20099;-51
2021/08/07 10:05:11;;;;;;;4.10;1.92;;;;;;;;;;5068684;28;20083;-51
2021/08/07 10:07:37;;;;;;;4.43;1.88;;;;;;;;;;5068464;28;20331;-52
2021/08/07 10:10:18;;;;;;;5.28;1.52;;;;;;;;;;5072383;28;20031;-52
2021/08/07 10:12:45;;;;;;;7.75;2.05;;;;;;;;;;5071579;28;20024;-52
2021/08/07 10:15:11;;;;;;;3.63;1.70;;;;;;;;;;5072757;28;20029;-52
2021/08/07 10:17:39;;;;;;;4.40;2.20;;;;;;;;;;5091829;28;20025;-51
2021/08/07 10:20:05;;;;;;;3.63;1.67;;;;;;;;;;5091975;28;20094;-51
2021/08/07 10:22:31;;;;;;;2.95;1.85;;;;;;;;;;5091526;28;20036;-52
2021/08/07 10:24:59;;;;;;;2.33;1.30;;;;;;;;;;5092082;28;20036;-51
2021/08/07 10:27:27;;;;;;;2.15;1.80;;;;;;;;;;5088692;28;20107;-51
2021/08/07 10:29:54;;;;;;;5.80;1.65;;;;;;;;;;5071941;28;20123;-51
2021/08/07 10:32:21;;;;;;;3.10;1.55;;;;;;;;;;5073475;28;20021;-52
2021/08/07 10:34:49;;;;;;;1.52;1.42;;;;;;;;;;5070372;28;20028;-51
2021/08/07 10:37:15;;;;;;;3.40;1.90;;;;;;;;;;5055495;28;20446;-51
2021/08/07 10:39:42;;;;;;;2.75;1.30;;;;;;;;;;5055037;28;20426;-51
2021/08/07 10:42:08;;;;;;;2.60;1.85;;;;;;;;;;5054913;28;20029;-51
2021/08/07 10:44:35;;;;;;;2.13;1.80;;;;;;;;;;5060774;28;20029;-51
2021/08/07 10:47:01;;;;;;;1.75;1.65;;;;;;;;;;5055221;28;20039;-52
2021/08/07 10:49:45;;;;;;;5.43;1.98;;;;;;;;;;5054864;28;20025;-52
2021/08/07 10:52:23;;;;;;;4.93;1.67;;;;;;;;;;5054731;28;20033;-51
2021/08/07 10:54:53;;;;;;;2.72;1.52;;;;;;;;;;5081516;28;20020;-51
2021/08/07 10:57:31;;;;;;;2.00;1.63;;;;;;;;;;5094614;28;20024;-51
2021/08/07 10:59:57;;;;;;;2.25;1.58;;;;;;;;;;5094438;28;20034;-52
2021/08/07 11:02:23;;;;;;;3.53;2.00;;;;;;;;;;5094798;28;20119;-52
2021/08/07 11:04:50;;;;;;;6.45;2.13;;;;;;;;;;5094993;28;20032;-51
2021/08/07 11:07:18;;;;;;;1.95;1.65;;;;;;;;;;5095197;28;20386;-52
2021/08/07 11:09:44;;;;;;;5.25;2.05;;;;;;;;;;5095005;28;20066;-51
2021/08/07 11:12:13;;;;;;;4.30;1.63;;;;;;;;;;5094220;28;20020;-52
2021/08/07 11:14:53;;;;;;;3.35;1.88;;;;;;;;;;5095173;28;20027;-51
2021/08/07 11:17:19;;;;;;;3.67;1.80;;;;;;;;;;5079985;28;20039;-52
2021/08/07 11:20:03;;;;;;;2.60;1.70;;;;;;;;;;5062698;28;20017;-52
2021/08/07 11:22:32;;;;;;;3.28;2.00;;;;;;;;;;5068466;28;20086;-51
2021/08/07 11:25:03;;;;;;;8.40;1.65;;;;;;;;;;5074511;28;20075;-51
2021/08/07 11:30:23;;;;;;;2.97;1.63;;;;;;;;;;5074612;28;20028;-51
2021/08/07 11:33:00;;;;;;;6.25;1.50;;;;;;;;;;5074201;28;20306;-51
2021/08/07 11:35:38;;;;;;;2.20;1.38;;;;;;;;;;5064454;28;20355;-52
2021/08/07 11:38:10;;;;;;;2.65;1.27;;;;;;;;;;5054444;28;20029;-51
2021/08/07 11:40:39;;;;;;;3.00;1.35;;;;;;;;;;5053685;28;20029;-50
2021/08/07 11:43:06;;;;;;;4.22;1.70;;;;;;;;;;5053880;28;20481;-50
2021/08/07 11:45:32;;;;;;;1.50;1.05;;;;;;;;;;5053991;28;20032;-50
2021/08/07 11:47:58;;;;;;;11.27;2.00;;;;;;;;;;5053838;28;20025;-50
2021/08/07 11:50:24;;;;;;;2.88;1.30;;;;;;;;;;5056027;28;20470;-51
2021/08/07 11:52:51;;;;;;;2.03;1.60;;;;;;;;;;5073307;28;20028;-51
2021/08/07 11:55:18;;;;;;;8.10;2.25;;;;;;;;;;5073883;28;20021;-52
2021/08/07 11:57:44;;;;;;;4.45;2.08;;;;;;;;;;5067899;28;20036;-51
2021/08/07 12:00:23;;;;;;;5.05;2.85;;;;;;;;;;5062499;28;20381;-52
2021/08/07 12:03:03;;;;;;;4.25;1.70;;;;;;;;;;5062156;28;20052;-52
2021/08/07 12:05:30;;;;;;;2.95;1.70;;;;;;;;;;5062467;28;20033;-51
2021/08/07 12:07:59;;;;;;;1.85;1.30;;;;;;;;;;5064334;28;20020;-52
2021/08/07 12:10:25;;;;;;;2.42;1.48;;;;;;;;;;5062536;28;20033;-52
2021/08/07 12:12:53;;;;;;;3.03;1.65;;;;;;;;;;5062854;28;20028;-52
2021/08/07 12:15:19;;;;;;;6.45;2.20;;;;;;;;;;5063990;28;20512;-52
2021/08/07 12:17:48;;;;;;;1.20;1.10;;;;;;;;;;5062781;28;20025;-52
2021/08/07 12:20:14;;;;;;;1.77;1.23;;;;;;;;;;5056933;28;20435;-52
2021/08/07 12:22:53;;;;;;;3.45;1.83;;;;;;;;;;5052528;28;20063;-51
2021/08/07 12:25:20;;;;;;;2.42;1.30;;;;;;;;;;5052652;28;20065;-52
2021/08/07 12:28:04;;;;;;;3.97;1.77;;;;;;;;;;5053320;28;20032;-51
2021/08/07 12:30:30;;;;;;;1.10;0.90;;;;;;;;;;5052818;28;20471;-52
2021/08/07 12:33:12;;;;;;;4.25;1.73;;;;;;;;;;5053378;28;20063;-52
2021/08/07 12:35:39;;;;;;;1.58;1.27;;;;;;;;;;5065830;28;20087;-52
2021/08/07 12:38:05;;;;;;;2.72;1.27;;;;;;;;;;5053315;28;20021;-52
2021/08/07 12:40:31;;;;;;;2.00;1.10;;;;;;;;;;5053194;28;20097;-52
2021/08/07 12:42:57;;;;;;;3.33;1.20;;;;;;;;;;5073435;28;20074;-52
2021/08/07 12:45:23;;;;;;;11.38;1.50;;;;;;;;;;5072232;28;20481;-52
2021/08/07 12:47:55;;;;;;;1.27;1.00;;;;;;;;;;5072316;28;20111;-50
2021/08/07 12:50:21;;;;;;;10.02;1.90;;;;;;;;;;5073436;28;20024;-52
2021/08/07 12:53:00;;;;;;;6.90;1.55;;;;;;;;;;5068527;28;20028;-51
2021/08/07 12:55:31;;;;;;;1.40;1.15;;;;;;;;;;5054632;28;20025;-52
2021/08/07 12:58:10;;;;;;;3.47;1.23;;;;;;;;;;5072263;28;20115;-52
2021/08/07 13:00:36;;;;;;;2.42;1.70;;;;;;;;;;5072126;28;20013;-51
2021/08/07 13:03:04;;;;;;;4.90;1.10;;;;;;;;;;5071818;28;20111;-52
2021/08/07 13:05:36;;;;;;;3.08;1.13;;;;;;;;;;5072307;28;20020;-52
2021/08/07 13:08:21;;;;;;;2.80;1.30;;;;;;;;;;5072360;28;20104;-52
2021/08/07 13:10:47;;;;;;;4.35;1.10;;;;;;;;;;5072243;28;20024;-52
2021/08/07 13:13:13;;;;;;;2.45;1.10;;;;;;;;;;5072154;28;20059;-52
2021/08/07 13:15:46;;;;;;;1.52;0.98;;;;;;;;;;5072989;28;20109;-52
2021/08/07 13:18:15;;;;;;;1.35;0.90;;;;;;;;;;5072610;28;20028;-51
2021/08/07 13:20:41;;;;;;;1.00;0.90;;;;;;;;;;5070918;28;20070;-52
2021/08/07 13:23:07;;;;;;;0.93;0.82;;;;;;;;;;5072238;28;20024;-51
2021/08/07 13:25:35;;;;;;;3.20;1.25;;;;;;;;;;5071680;28;20147;-52
2021/08/07 13:28:08;;;;;;;2.75;1.30;;;;;;;;;;5072528;28;20029;-51
2021/08/07 13:30:43;;;;;;;1.25;0.80;;;;;;;;;;5071824;28;20078;-52
2021/08/07 13:33:09;;;;;;;1.88;1.00;;;;;;;;;;5063421;28;20146;-52
2021/08/07 13:35:35;;;;;;;1.60;1.20;;;;;;;;;;5051517;28;20510;-51
2021/08/07 13:38:01;;;;;;;1.65;1.02;;;;;;;;;;5051859;28;20139;-51
2021/08/07 13:40:27;;;;;;;1.13;1.00;;;;;;;;;;5090289;28;20103;-52
2021/08/07 13:42:54;;;;;;;3.30;0.93;;;;;;;;;;5078881;28;20357;-51
2021/08/07 13:45:20;;;;;;;1.58;1.05;;;;;;;;;;5072132;28;20477;-51
2021/08/07 13:47:46;;;;;;;3.53;1.00;;;;;;;;;;5066625;28;20021;-51
2021/08/07 13:50:12;;;;;;;1.02;0.90;;;;;;;;;;5052247;28;20057;-52
2021/08/07 13:52:38;;;;;;;1.40;0.82;;;;;;;;;;5051366;28;20025;-51
2021/08/07 13:55:05;;;;;;;1.00;0.75;;;;;;;;;;5051816;28;20451;-52
2021/08/07 13:57:31;;;;;;;1.52;1.08;;;;;;;;;;5069969;28;20052;-51
2021/08/07 13:59:57;;;;;;;1.40;0.98;;;;;;;;;;5072860;28;20031;-51
2021/08/07 14:02:23;;;;;;;1.58;1.10;;;;;;;;;;5070336;28;20021;-51
2021/08/07 14:04:49;;;;;;;1.23;0.90;;;;;;;;;;5072415;28;20063;-52
2021/08/07 14:07:15;;;;;;;0.80;0.70;;;;;;;;;;5075154;28;20074;-52
2021/08/07 14:09:41;;;;;;;1.23;0.82;;;;;;;;;;5075414;28;20029;-52
2021/08/07 14:12:07;;;;;;;2.58;1.10;;;;;;;;;;5074401;28;20043;-52
2021/08/07 14:14:33;;;;;;;0.80;0.80;;;;;;;;;;5076135;28;20025;-51
2021/08/07 14:16:59;;;;;;;1.23;1.13;;;;;;;;;;5068124;28;20134;-52
2021/08/07 14:19:26;;;;;;;1.23;1.10;;;;;;;;;;5074151;28;20126;-52
2021/08/07 14:21:53;;;;;;;1.77;0.98;;;;;;;;;;5072239;28;20450;-52
2021/08/07 14:24:20;;;;;;;1.10;0.98;;;;;;;;;;5075310;28;20364;-51
2021/08/07 14:26:46;;;;;;;1.55;1.08;;;;;;;;;;5067240;28;20121;-52
2021/08/07 14:29:13;;;;;;;2.53;0.90;;;;;;;;;;5075477;28;20052;-52
2021/08/07 14:31:39;;;;;;;1.48;1.20;;;;;;;;;;5074936;28;20021;-52
2021/08/07 14:34:05;;;;;;;1.58;1.00;;;;;;;;;;5075021;28;20025;-52
2021/08/07 14:36:32;;;;;;;4.25;1.92;;;;;;;;;;5075243;28;20361;-52
2021/08/07 14:38:58;;;;;;;3.42;1.17;;;;;;;;;;5075434;28;20027;-52
2021/08/07 14:41:24;;;;;;;2.33;0.88;;;;;;;;;;5074326;28;20450;-52
2021/08/07 14:43:49;;;;;;;1.20;1.08;;;;;;;;;;5069321;28;20025;-51
2021/08/07 14:46:15;;;;;;;1.90;1.40;;;;;;;;;;5056014;28;20247;-52